sensor_id;sensor_type;location;lat;lon;timestamp;noise_LAeq;noise_LA_min;noise_LA_max;noise_LA01;noise_LA95
66458;Laerm;56835;52.198;4.826;2023-04-19T00:00:08;54.09;52.17;55.44;;
66458;Laerm;56835;52.198;4.826;2023-04-19T00:00:18;54.02;52.11;55.64;;
66458;Laerm;56835;52.198;4.826;2023-04-19T00:00:30;53.93;52.41;55.08;;
66458;Laerm;56835;52.198;4.826;2023-04-19T00:00:40;53.97;52.52;55.16;;
66458;Laerm;56835;52.198;4.826;2023-04-19T00:00:51;54.01;52.04;55.59;;
66458;Laerm;56835;52.198;4.826;2023-04-19T00:01:01;53.98;52.27;55.59;;
66458;Laerm;56835;52.198;4.826;2023-04-19T00:01:12;53.95;52.08;55.66;;
66458;Laerm;56835;52.198;4.826;2023-04-19T00:01:22;54.03;51.82;55.47;;
66458;Laerm;56835;52.198;4.826;2023-04-19T00:01:33;53.96;51.99;55.25;;
66458;Laerm;56835;52.198;4.826;2023-04-19T00:01:44;53.98;51.99;55.61;;
66458;Laerm;56835;52.198;4.826;2023-04-19T00:01:54;53.92;52.40;55.29;;
66458;Laerm;56835;52.198;4.826;2023-04-19T00:02:04;53.97;52.01;55.60;;
66458;Laerm;56835;52.198;4.826;2023-04-19T00:02:15;53.93;52.03;55.36;;
66458;Laerm;56835;52.198;4.826;2023-04-19T00:02:27;53.99;52.12;55.62;;
66458;Laerm;56835;52.198;4.826;2023-04-19T00:02:37;53.90;52.28;55.48;;
66458;Laerm;56835;52.198;4.826;2023-04-19T00:02:48;53.88;52.30;55.36;;
66458;Laerm;56835;52.198;4.826;2023-04-19T00:02:58;53.93;52.29;55.17;;
66458;Laerm;56835;52.198;4.826;2023-04-19T00:03:09;53.91;52.39;55.67;;
66458;Laerm;56835;52.198;4.826;2023-04-19T00:03:20;53.92;52.29;55.28;;
66458;Laerm;56835;52.198;4.826;2023-04-19T00:03:33;53.92;52.05;55.24;;
66458;Laerm;56835;52.198;4.826;2023-04-19T00:03:43;53.90;52.20;55.31;;
66458;Laerm;56835;52.198;4.826;2023-04-19T00:03:54;53.86;52.20;55.35;;
66458;Laerm;56835;52.198;4.826;2023-04-19T00:04:08;53.85;51.72;55.18;;
66458;Laerm;56835;52.198;4.826;2023-04-19T00:04:18;53.94;52.08;55.29;;
66458;Laerm;56835;52.198;4.826;2023-04-19T00:04:29;53.90;52.01;55.34;;
66458;Laerm;56835;52.198;4.826;2023-04-19T00:04:40;53.85;52.01;54.96;;
66458;Laerm;56835;52.198;4.826;2023-04-19T00:04:50;53.87;52.06;55.30;;
66458;Laerm;56835;52.198;4.826;2023-04-19T00:05:02;53.86;52.29;55.27;;
66458;Laerm;56835;52.198;4.826;2023-04-19T00:05:12;53.91;52.31;55.34;;
66458;Laerm;56835;52.198;4.826;2023-04-19T00:05:23;53.87;51.90;55.25;;
66458;Laerm;56835;52.198;4.826;2023-04-19T00:05:33;53.92;51.84;55.55;;
66458;Laerm;56835;52.198;4.826;2023-04-19T00:05:43;53.87;52.35;55.02;;
66458;Laerm;56835;52.198;4.826;2023-04-19T00:05:54;53.95;51.95;55.36;;
66458;Laerm;56835;52.198;4.826;2023-04-19T00:06:07;53.90;52.38;55.70;;
66458;Laerm;56835;52.198;4.826;2023-04-19T00:06:19;53.88;51.61;55.44;;
66458;Laerm;56835;52.198;4.826;2023-04-19T00:06:30;53.84;52.26;55.03;;
66458;Laerm;56835;52.198;4.826;2023-04-19T00:06:40;53.83;52.21;55.35;;
66458;Laerm;56835;52.198;4.826;2023-04-19T00:06:51;53.89;52.22;55.97;;
66458;Laerm;56835;52.198;4.826;2023-04-19T00:07:01;53.87;52.34;54.99;;
66458;Laerm;56835;52.198;4.826;2023-04-19T00:07:12;53.79;52.11;55.36;;
66458;Laerm;56835;52.198;4.826;2023-04-19T00:07:22;53.84;51.77;55.10;;
66458;Laerm;56835;52.198;4.826;2023-04-19T00:07:33;53.84;51.96;55.40;;
66458;Laerm;56835;52.198;4.826;2023-04-19T00:07:43;53.82;51.98;55.20;;
66458;Laerm;56835;52.198;4.826;2023-04-19T00:07:53;53.84;52.08;55.24;;
66458;Laerm;56835;52.198;4.826;2023-04-19T00:08:04;53.88;51.88;55.61;;
66458;Laerm;56835;52.198;4.826;2023-04-19T00:08:14;53.80;52.17;55.26;;
66458;Laerm;56835;52.198;4.826;2023-04-19T00:08:25;53.83;52.14;55.40;;
66458;Laerm;56835;52.198;4.826;2023-04-19T00:08:35;53.76;51.87;55.46;;
66458;Laerm;56835;52.198;4.826;2023-04-19T00:08:45;53.76;52.07;55.10;;
66458;Laerm;56835;52.198;4.826;2023-04-19T00:08:56;53.83;52.13;55.59;;
66458;Laerm;56835;52.198;4.826;2023-04-19T00:09:07;53.86;52.19;55.26;;
66458;Laerm;56835;52.198;4.826;2023-04-19T00:09:17;53.81;51.88;55.38;;
66458;Laerm;56835;52.198;4.826;2023-04-19T00:09:27;53.78;51.92;55.34;;
66458;Laerm;56835;52.198;4.826;2023-04-19T00:09:38;53.84;52.27;55.26;;
66458;Laerm;56835;52.198;4.826;2023-04-19T00:09:48;53.86;51.89;55.35;;
66458;Laerm;56835;52.198;4.826;2023-04-19T00:09:58;53.77;51.97;55.36;;
66458;Laerm;56835;52.198;4.826;2023-04-19T00:10:08;53.79;52.37;55.15;;
66458;Laerm;56835;52.198;4.826;2023-04-19T00:10:19;53.78;52.35;55.03;;
66458;Laerm;56835;52.198;4.826;2023-04-19T00:10:29;53.78;52.12;55.15;;
66458;Laerm;56835;52.198;4.826;2023-04-19T00:10:40;53.82;50.98;55.08;;
66458;Laerm;56835;52.198;4.826;2023-04-19T00:10:50;53.76;52.32;55.12;;
66458;Laerm;56835;52.198;4.826;2023-04-19T00:11:00;53.74;52.24;55.14;;
66458;Laerm;56835;52.198;4.826;2023-04-19T00:11:11;53.74;51.86;55.45;;
66458;Laerm;56835;52.198;4.826;2023-04-19T00:11:21;53.82;52.01;55.80;;
66458;Laerm;56835;52.198;4.826;2023-04-19T00:11:31;53.75;51.97;55.67;;
66458;Laerm;56835;52.198;4.826;2023-04-19T00:11:41;53.76;51.78;54.96;;
66458;Laerm;56835;52.198;4.826;2023-04-19T00:11:52;53.80;52.12;55.27;;
66458;Laerm;56835;52.198;4.826;2023-04-19T00:12:02;53.78;52.21;55.52;;
66458;Laerm;56835;52.198;4.826;2023-04-19T00:12:12;53.78;51.20;55.04;;
66458;Laerm;56835;52.198;4.826;2023-04-19T00:12:22;53.78;51.93;55.12;;
66458;Laerm;56835;52.198;4.826;2023-04-19T00:12:33;53.75;52.18;55.04;;
66458;Laerm;56835;52.198;4.826;2023-04-19T00:12:43;53.82;52.15;55.49;;
66458;Laerm;56835;52.198;4.826;2023-04-19T00:12:53;53.78;51.82;55.24;;
66458;Laerm;56835;52.198;4.826;2023-04-19T00:13:04;53.79;52.19;55.34;;
66458;Laerm;56835;52.198;4.826;2023-04-19T00:13:14;53.80;52.39;55.44;;
66458;Laerm;56835;52.198;4.826;2023-04-19T00:13:24;53.74;51.63;55.24;;
66458;Laerm;56835;52.198;4.826;2023-04-19T00:13:35;53.69;51.76;55.10;;
66458;Laerm;56835;52.198;4.826;2023-04-19T00:13:45;53.58;51.96;55.04;;
66458;Laerm;56835;52.198;4.826;2023-04-19T00:13:55;53.71;52.16;55.30;;
66458;Laerm;56835;52.198;4.826;2023-04-19T00:14:06;53.74;52.00;55.27;;
66458;Laerm;56835;52.198;4.826;2023-04-19T00:14:16;53.77;51.75;54.97;;
66458;Laerm;56835;52.198;4.826;2023-04-19T00:14:26;53.81;52.05;55.60;;
66458;Laerm;56835;52.198;4.826;2023-04-19T00:14:36;53.73;52.13;55.01;;
66458;Laerm;56835;52.198;4.826;2023-04-19T00:14:46;53.72;52.20;55.07;;
66458;Laerm;56835;52.198;4.826;2023-04-19T00:14:57;53.75;51.99;55.03;;
66458;Laerm;56835;52.198;4.826;2023-04-19T00:15:07;53.74;52.00;55.14;;
66458;Laerm;56835;52.198;4.826;2023-04-19T00:15:18;53.74;52.13;55.15;;
66458;Laerm;56835;52.198;4.826;2023-04-19T00:15:28;53.75;52.13;55.42;;
66458;Laerm;56835;52.198;4.826;2023-04-19T00:15:38;53.78;51.99;55.29;;
66458;Laerm;56835;52.198;4.826;2023-04-19T00:15:48;53.81;52.31;54.99;;
66458;Laerm;56835;52.198;4.826;2023-04-19T00:15:59;53.74;52.06;55.02;;
66458;Laerm;56835;52.198;4.826;2023-04-19T00:16:10;53.73;52.26;55.25;;
66458;Laerm;56835;52.198;4.826;2023-04-19T00:16:20;53.80;52.04;55.44;;
66458;Laerm;56835;52.198;4.826;2023-04-19T00:16:30;53.74;52.06;55.19;;
66458;Laerm;56835;52.198;4.826;2023-04-19T00:16:40;53.82;51.82;55.06;;
66458;Laerm;56835;52.198;4.826;2023-04-19T00:16:51;53.82;52.33;55.37;;
66458;Laerm;56835;52.198;4.826;2023-04-19T00:17:01;53.77;52.06;55.07;;
66458;Laerm;56835;52.198;4.826;2023-04-19T00:17:11;53.69;52.22;55.06;;
66458;Laerm;56835;52.198;4.826;2023-04-19T00:17:22;53.79;51.73;55.22;;
66458;Laerm;56835;52.198;4.826;2023-04-19T00:17:32;53.73;51.73;55.24;;
66458;Laerm;56835;52.198;4.826;2023-04-19T00:17:42;53.75;51.78;54.93;;
66458;Laerm;56835;52.198;4.826;2023-04-19T00:17:53;53.75;52.13;55.38;;
66458;Laerm;56835;52.198;4.826;2023-04-19T00:18:03;53.72;52.14;55.41;;
66458;Laerm;56835;52.198;4.826;2023-04-19T00:18:13;53.70;51.70;55.21;;
66458;Laerm;56835;52.198;4.826;2023-04-19T00:18:24;53.76;52.11;55.09;;
66458;Laerm;56835;52.198;4.826;2023-04-19T00:18:34;53.72;52.24;55.23;;
66458;Laerm;56835;52.198;4.826;2023-04-19T00:18:45;53.76;51.72;55.38;;
66458;Laerm;56835;52.198;4.826;2023-04-19T00:18:55;53.72;51.84;55.05;;
66458;Laerm;56835;52.198;4.826;2023-04-19T00:19:05;53.74;52.02;55.07;;
66458;Laerm;56835;52.198;4.826;2023-04-19T00:19:16;53.73;51.68;54.95;;
66458;Laerm;56835;52.198;4.826;2023-04-19T00:19:26;53.76;51.82;55.30;;
66458;Laerm;56835;52.198;4.826;2023-04-19T00:19:37;53.67;51.19;55.12;;
66458;Laerm;56835;52.198;4.826;2023-04-19T00:19:47;53.73;52.18;55.05;;
66458;Laerm;56835;52.198;4.826;2023-04-19T00:19:57;53.83;51.53;55.10;;
66458;Laerm;56835;52.198;4.826;2023-04-19T00:20:08;53.86;52.51;55.31;;
66458;Laerm;56835;52.198;4.826;2023-04-19T00:20:19;53.79;52.27;55.22;;
66458;Laerm;56835;52.198;4.826;2023-04-19T00:20:29;53.80;51.96;55.06;;
66458;Laerm;56835;52.198;4.826;2023-04-19T00:20:40;53.82;52.17;55.21;;
66458;Laerm;56835;52.198;4.826;2023-04-19T00:20:50;53.79;51.80;55.13;;
66458;Laerm;56835;52.198;4.826;2023-04-19T00:21:00;53.83;51.90;55.35;;
66458;Laerm;56835;52.198;4.826;2023-04-19T00:21:11;53.72;51.95;54.95;;
66458;Laerm;56835;52.198;4.826;2023-04-19T00:21:22;53.70;52.14;55.25;;
66458;Laerm;56835;52.198;4.826;2023-04-19T00:21:32;53.80;52.19;55.27;;
66458;Laerm;56835;52.198;4.826;2023-04-19T00:21:42;53.81;52.29;55.00;;
66458;Laerm;56835;52.198;4.826;2023-04-19T00:21:52;53.76;52.56;55.64;;
66458;Laerm;56835;52.198;4.826;2023-04-19T00:22:03;53.73;52.00;55.22;;
66458;Laerm;56835;52.198;4.826;2023-04-19T00:22:13;53.77;52.43;55.18;;
66458;Laerm;56835;52.198;4.826;2023-04-19T00:22:23;53.83;52.05;55.39;;
66458;Laerm;56835;52.198;4.826;2023-04-19T00:22:34;53.87;52.04;55.65;;
66458;Laerm;56835;52.198;4.826;2023-04-19T00:22:44;53.82;52.08;55.10;;
66458;Laerm;56835;52.198;4.826;2023-04-19T00:22:54;53.87;52.23;55.11;;
66458;Laerm;56835;52.198;4.826;2023-04-19T00:23:05;53.75;51.97;55.18;;
66458;Laerm;56835;52.198;4.826;2023-04-19T00:23:16;53.74;52.02;54.88;;
66458;Laerm;56835;52.198;4.826;2023-04-19T00:23:26;53.77;52.13;55.37;;
66458;Laerm;56835;52.198;4.826;2023-04-19T00:23:36;53.77;51.67;55.06;;
66458;Laerm;56835;52.198;4.826;2023-04-19T00:23:46;53.79;52.21;54.89;;
66458;Laerm;56835;52.198;4.826;2023-04-19T00:23:57;53.76;52.43;55.37;;
66458;Laerm;56835;52.198;4.826;2023-04-19T00:24:07;53.72;51.80;55.07;;
66458;Laerm;56835;52.198;4.826;2023-04-19T00:24:17;53.78;52.37;55.06;;
66458;Laerm;56835;52.198;4.826;2023-04-19T00:24:27;53.74;52.21;55.04;;
66458;Laerm;56835;52.198;4.826;2023-04-19T00:24:38;53.79;52.12;55.02;;
66458;Laerm;56835;52.198;4.826;2023-04-19T00:24:48;53.71;52.18;55.23;;
66458;Laerm;56835;52.198;4.826;2023-04-19T00:24:58;53.73;51.74;55.21;;
66458;Laerm;56835;52.198;4.826;2023-04-19T00:25:08;53.71;52.02;55.46;;
66458;Laerm;56835;52.198;4.826;2023-04-19T00:25:19;53.82;51.85;55.63;;
66458;Laerm;56835;52.198;4.826;2023-04-19T00:25:29;53.72;52.15;54.87;;
66458;Laerm;56835;52.198;4.826;2023-04-19T00:25:40;53.81;52.22;55.22;;
66458;Laerm;56835;52.198;4.826;2023-04-19T00:25:51;53.77;52.18;55.00;;
66458;Laerm;56835;52.198;4.826;2023-04-19T00:26:02;53.75;52.04;54.99;;
66458;Laerm;56835;52.198;4.826;2023-04-19T00:26:13;53.70;51.80;55.34;;
66458;Laerm;56835;52.198;4.826;2023-04-19T00:26:24;53.80;51.84;55.44;;
66458;Laerm;56835;52.198;4.826;2023-04-19T00:26:35;53.72;52.28;55.14;;
66458;Laerm;56835;52.198;4.826;2023-04-19T00:26:45;53.74;51.98;54.87;;
66458;Laerm;56835;52.198;4.826;2023-04-19T00:26:55;53.79;52.25;55.38;;
66458;Laerm;56835;52.198;4.826;2023-04-19T00:27:06;53.75;52.13;55.37;;
66458;Laerm;56835;52.198;4.826;2023-04-19T00:27:16;53.73;52.05;54.96;;
66458;Laerm;56835;52.198;4.826;2023-04-19T00:27:26;53.75;51.85;55.29;;
66458;Laerm;56835;52.198;4.826;2023-04-19T00:27:37;53.78;52.48;55.32;;
66458;Laerm;56835;52.198;4.826;2023-04-19T00:27:47;53.74;52.08;55.38;;
66458;Laerm;56835;52.198;4.826;2023-04-19T00:27:57;53.73;51.98;55.50;;
66458;Laerm;56835;52.198;4.826;2023-04-19T00:28:07;53.81;52.16;54.99;;
66458;Laerm;56835;52.198;4.826;2023-04-19T00:28:18;53.77;52.05;55.33;;
66458;Laerm;56835;52.198;4.826;2023-04-19T00:28:28;53.73;51.71;55.33;;
66458;Laerm;56835;52.198;4.826;2023-04-19T00:28:38;53.78;51.99;55.19;;
66458;Laerm;56835;52.198;4.826;2023-04-19T00:28:49;53.78;52.11;55.21;;
66458;Laerm;56835;52.198;4.826;2023-04-19T00:28:59;53.65;51.99;55.45;;
66458;Laerm;56835;52.198;4.826;2023-04-19T00:29:09;53.70;52.24;55.14;;
66458;Laerm;56835;52.198;4.826;2023-04-19T00:29:20;53.77;52.27;55.38;;
66458;Laerm;56835;52.198;4.826;2023-04-19T00:29:30;53.76;51.86;55.38;;
66458;Laerm;56835;52.198;4.826;2023-04-19T00:29:40;53.59;51.87;55.12;;
66458;Laerm;56835;52.198;4.826;2023-04-19T00:29:51;53.72;52.08;55.02;;
66458;Laerm;56835;52.198;4.826;2023-04-19T00:30:01;53.59;52.16;54.96;;
66458;Laerm;56835;52.198;4.826;2023-04-19T00:30:11;53.46;51.74;54.80;;
66458;Laerm;56835;52.198;4.826;2023-04-19T00:30:22;53.54;52.07;55.07;;
66458;Laerm;56835;52.198;4.826;2023-04-19T00:30:32;53.80;52.05;55.01;;
66458;Laerm;56835;52.198;4.826;2023-04-19T00:30:42;53.79;52.18;55.18;;
66458;Laerm;56835;52.198;4.826;2023-04-19T00:30:52;53.73;52.07;55.15;;
66458;Laerm;56835;52.198;4.826;2023-04-19T00:31:03;53.75;52.25;55.42;;
66458;Laerm;56835;52.198;4.826;2023-04-19T00:31:13;53.81;51.79;55.21;;
66458;Laerm;56835;52.198;4.826;2023-04-19T00:31:23;53.73;51.92;55.06;;
66458;Laerm;56835;52.198;4.826;2023-04-19T00:31:33;53.74;51.86;55.03;;
66458;Laerm;56835;52.198;4.826;2023-04-19T00:31:44;53.73;51.99;55.30;;
66458;Laerm;56835;52.198;4.826;2023-04-19T00:31:54;53.72;52.08;54.93;;
66458;Laerm;56835;52.198;4.826;2023-04-19T00:32:04;53.72;52.14;55.33;;
66458;Laerm;56835;52.198;4.826;2023-04-19T00:32:15;53.76;51.53;55.42;;
66458;Laerm;56835;52.198;4.826;2023-04-19T00:32:25;53.76;51.97;55.23;;
66458;Laerm;56835;52.198;4.826;2023-04-19T00:32:35;53.75;52.18;55.22;;
66458;Laerm;56835;52.198;4.826;2023-04-19T00:32:46;53.75;52.09;55.27;;
66458;Laerm;56835;52.198;4.826;2023-04-19T00:32:56;53.76;52.15;55.39;;
66458;Laerm;56835;52.198;4.826;2023-04-19T00:33:06;53.79;52.05;54.99;;
66458;Laerm;56835;52.198;4.826;2023-04-19T00:33:21;53.74;52.04;55.21;;
66458;Laerm;56835;52.198;4.826;2023-04-19T00:33:32;53.83;51.89;55.39;;
66458;Laerm;56835;52.198;4.826;2023-04-19T00:33:42;53.71;52.15;54.89;;
66458;Laerm;56835;52.198;4.826;2023-04-19T00:33:52;53.80;52.27;55.21;;
66458;Laerm;56835;52.198;4.826;2023-04-19T00:34:02;53.77;52.19;55.25;;
66458;Laerm;56835;52.198;4.826;2023-04-19T00:34:12;53.78;51.95;55.07;;
66458;Laerm;56835;52.198;4.826;2023-04-19T00:34:23;53.73;52.31;55.16;;
66458;Laerm;56835;52.198;4.826;2023-04-19T00:34:33;53.73;52.21;55.47;;
66458;Laerm;56835;52.198;4.826;2023-04-19T00:34:43;53.79;52.15;55.04;;
66458;Laerm;56835;52.198;4.826;2023-04-19T00:34:54;53.91;51.97;55.26;;
66458;Laerm;56835;52.198;4.826;2023-04-19T00:35:04;53.89;52.03;55.55;;
66458;Laerm;56835;52.198;4.826;2023-04-19T00:35:14;53.81;51.95;55.32;;
66458;Laerm;56835;52.198;4.826;2023-04-19T00:35:25;53.82;52.06;55.10;;
66458;Laerm;56835;52.198;4.826;2023-04-19T00:35:35;53.82;52.17;55.26;;
66458;Laerm;56835;52.198;4.826;2023-04-19T00:35:45;53.79;51.80;55.40;;
66458;Laerm;56835;52.198;4.826;2023-04-19T00:35:55;53.75;51.93;55.21;;
66458;Laerm;56835;52.198;4.826;2023-04-19T00:36:06;53.86;51.98;55.43;;
66458;Laerm;56835;52.198;4.826;2023-04-19T00:36:16;53.82;52.01;55.46;;
66458;Laerm;56835;52.198;4.826;2023-04-19T00:36:26;53.85;52.15;55.11;;
66458;Laerm;56835;52.198;4.826;2023-04-19T00:36:36;53.84;52.23;55.28;;
66458;Laerm;56835;52.198;4.826;2023-04-19T00:36:47;53.78;52.21;55.39;;
66458;Laerm;56835;52.198;4.826;2023-04-19T00:36:57;53.79;51.93;55.26;;
66458;Laerm;56835;52.198;4.826;2023-04-19T00:37:07;53.85;51.66;55.10;;
66458;Laerm;56835;52.198;4.826;2023-04-19T00:37:18;53.88;51.63;55.23;;
66458;Laerm;56835;52.198;4.826;2023-04-19T00:37:28;53.86;52.08;55.35;;
66458;Laerm;56835;52.198;4.826;2023-04-19T00:37:38;53.93;52.09;55.66;;
66458;Laerm;56835;52.198;4.826;2023-04-19T00:37:48;53.94;52.05;55.52;;
66458;Laerm;56835;52.198;4.826;2023-04-19T00:37:59;53.78;52.19;55.36;;
66458;Laerm;56835;52.198;4.826;2023-04-19T00:38:09;53.82;52.14;55.33;;
66458;Laerm;56835;52.198;4.826;2023-04-19T00:38:19;53.79;51.99;54.99;;
66458;Laerm;56835;52.198;4.826;2023-04-19T00:38:29;53.83;51.92;55.28;;
66458;Laerm;56835;52.198;4.826;2023-04-19T00:38:39;53.88;52.19;55.87;;
66458;Laerm;56835;52.198;4.826;2023-04-19T00:38:50;53.94;52.07;55.37;;
66458;Laerm;56835;52.198;4.826;2023-04-19T00:39:00;53.81;52.11;55.59;;
66458;Laerm;56835;52.198;4.826;2023-04-19T00:39:11;53.85;52.10;55.28;;
66458;Laerm;56835;52.198;4.826;2023-04-19T00:39:21;53.96;52.18;55.51;;
66458;Laerm;56835;52.198;4.826;2023-04-19T00:39:31;53.90;51.90;55.17;;
66458;Laerm;56835;52.198;4.826;2023-04-19T00:39:41;53.85;51.74;55.16;;
66458;Laerm;56835;52.198;4.826;2023-04-19T00:39:52;53.86;52.20;55.08;;
66458;Laerm;56835;52.198;4.826;2023-04-19T00:40:02;53.79;51.66;55.49;;
66458;Laerm;56835;52.198;4.826;2023-04-19T00:40:13;53.87;52.50;55.09;;
66458;Laerm;56835;52.198;4.826;2023-04-19T00:40:24;53.98;52.18;55.36;;
66458;Laerm;56835;52.198;4.826;2023-04-19T00:40:34;53.90;52.11;55.18;;
66458;Laerm;56835;52.198;4.826;2023-04-19T00:40:45;53.88;52.19;55.20;;
66458;Laerm;56835;52.198;4.826;2023-04-19T00:40:57;53.87;52.14;55.10;;
66458;Laerm;56835;52.198;4.826;2023-04-19T00:41:08;53.80;52.18;55.27;;
66458;Laerm;56835;52.198;4.826;2023-04-19T00:41:18;53.80;52.36;55.15;;
66458;Laerm;56835;52.198;4.826;2023-04-19T00:41:28;53.85;52.10;55.28;;
66458;Laerm;56835;52.198;4.826;2023-04-19T00:41:39;53.81;52.07;55.33;;
66458;Laerm;56835;52.198;4.826;2023-04-19T00:41:49;53.82;52.03;55.04;;
66458;Laerm;56835;52.198;4.826;2023-04-19T00:41:59;53.84;52.32;55.27;;
66458;Laerm;56835;52.198;4.826;2023-04-19T00:42:10;53.83;51.87;55.41;;
66458;Laerm;56835;52.198;4.826;2023-04-19T00:42:20;53.79;51.84;55.28;;
66458;Laerm;56835;52.198;4.826;2023-04-19T00:42:30;53.85;52.03;55.41;;
66458;Laerm;56835;52.198;4.826;2023-04-19T00:42:41;53.83;52.49;55.32;;
66458;Laerm;56835;52.198;4.826;2023-04-19T00:42:51;53.78;51.38;55.22;;
66458;Laerm;56835;52.198;4.826;2023-04-19T00:43:01;53.77;51.89;55.42;;
66458;Laerm;56835;52.198;4.826;2023-04-19T00:43:15;53.84;51.88;55.21;;
66458;Laerm;56835;52.198;4.826;2023-04-19T00:43:25;53.76;51.66;55.30;;
66458;Laerm;56835;52.198;4.826;2023-04-19T00:43:36;53.64;52.14;55.24;;
66458;Laerm;56835;52.198;4.826;2023-04-19T00:43:46;53.74;51.70;54.86;;
66458;Laerm;56835;52.198;4.826;2023-04-19T00:43:56;53.82;51.96;55.20;;
66458;Laerm;56835;52.198;4.826;2023-04-19T00:44:06;53.83;51.80;55.26;;
66458;Laerm;56835;52.198;4.826;2023-04-19T00:44:17;53.78;52.16;55.67;;
66458;Laerm;56835;52.198;4.826;2023-04-19T00:44:27;53.77;51.95;55.20;;
66458;Laerm;56835;52.198;4.826;2023-04-19T00:44:37;53.81;52.29;55.25;;
66458;Laerm;56835;52.198;4.826;2023-04-19T00:44:47;53.82;51.80;54.96;;
66458;Laerm;56835;52.198;4.826;2023-04-19T00:44:58;53.83;52.20;55.25;;
66458;Laerm;56835;52.198;4.826;2023-04-19T00:45:08;53.83;52.35;55.26;;
66458;Laerm;56835;52.198;4.826;2023-04-19T00:45:18;53.78;52.18;55.26;;
66458;Laerm;56835;52.198;4.826;2023-04-19T00:45:29;53.79;51.74;55.30;;
66458;Laerm;56835;52.198;4.826;2023-04-19T00:45:41;53.81;52.02;55.19;;
66458;Laerm;56835;52.198;4.826;2023-04-19T00:45:51;53.84;52.28;55.45;;
66458;Laerm;56835;52.198;4.826;2023-04-19T00:46:02;53.78;52.26;55.92;;
66458;Laerm;56835;52.198;4.826;2023-04-19T00:46:13;53.78;52.19;55.36;;
66458;Laerm;56835;52.198;4.826;2023-04-19T00:46:23;53.87;52.42;55.10;;
66458;Laerm;56835;52.198;4.826;2023-04-19T00:46:35;53.90;52.11;55.10;;
66458;Laerm;56835;52.198;4.826;2023-04-19T00:46:46;53.78;52.09;54.97;;
66458;Laerm;56835;52.198;4.826;2023-04-19T00:46:56;53.83;52.22;55.22;;
66458;Laerm;56835;52.198;4.826;2023-04-19T00:47:07;53.80;52.22;55.44;;
66458;Laerm;56835;52.198;4.826;2023-04-19T00:47:17;53.76;52.24;55.13;;
66458;Laerm;56835;52.198;4.826;2023-04-19T00:47:28;53.80;51.70;55.21;;
66458;Laerm;56835;52.198;4.826;2023-04-19T00:47:39;53.79;51.59;55.34;;
66458;Laerm;56835;52.198;4.826;2023-04-19T00:47:49;53.78;51.88;55.31;;
66458;Laerm;56835;52.198;4.826;2023-04-19T00:48:00;53.86;52.19;55.18;;
66458;Laerm;56835;52.198;4.826;2023-04-19T00:48:11;53.77;51.90;55.40;;
66458;Laerm;56835;52.198;4.826;2023-04-19T00:48:22;53.83;51.97;55.64;;
66458;Laerm;56835;52.198;4.826;2023-04-19T00:48:33;53.84;51.70;55.10;;
66458;Laerm;56835;52.198;4.826;2023-04-19T00:48:45;53.76;52.04;55.12;;
66458;Laerm;56835;52.198;4.826;2023-04-19T00:48:55;53.78;51.70;55.36;;
66458;Laerm;56835;52.198;4.826;2023-04-19T00:49:06;53.78;52.04;55.39;;
66458;Laerm;56835;52.198;4.826;2023-04-19T00:49:16;53.84;52.04;55.26;;
66458;Laerm;56835;52.198;4.826;2023-04-19T00:49:27;53.78;52.31;55.05;;
66458;Laerm;56835;52.198;4.826;2023-04-19T00:49:38;53.82;52.50;55.09;;
66458;Laerm;56835;52.198;4.826;2023-04-19T00:49:49;53.75;51.37;55.08;;
66458;Laerm;56835;52.198;4.826;2023-04-19T00:49:59;53.83;52.50;55.50;;
66458;Laerm;56835;52.198;4.826;2023-04-19T00:50:10;53.82;52.18;55.53;;
66458;Laerm;56835;52.198;4.826;2023-04-19T00:50:20;53.81;52.22;55.36;;
66458;Laerm;56835;52.198;4.826;2023-04-19T00:50:30;53.76;51.94;55.00;;
66458;Laerm;56835;52.198;4.826;2023-04-19T00:50:42;53.76;52.23;55.07;;
66458;Laerm;56835;52.198;4.826;2023-04-19T00:50:53;53.76;51.69;55.27;;
66458;Laerm;56835;52.198;4.826;2023-04-19T00:51:04;53.72;51.55;55.41;;
66458;Laerm;56835;52.198;4.826;2023-04-19T00:51:14;53.78;51.33;55.16;;
66458;Laerm;56835;52.198;4.826;2023-04-19T00:51:25;53.75;52.17;55.05;;
66458;Laerm;56835;52.198;4.826;2023-04-19T00:51:36;53.72;52.28;55.01;;
66458;Laerm;56835;52.198;4.826;2023-04-19T00:51:46;53.75;51.54;55.03;;
66458;Laerm;56835;52.198;4.826;2023-04-19T00:51:57;53.76;52.20;55.24;;
66458;Laerm;56835;52.198;4.826;2023-04-19T00:52:07;53.73;52.27;54.90;;
66458;Laerm;56835;52.198;4.826;2023-04-19T00:52:17;53.79;51.86;55.16;;
66458;Laerm;56835;52.198;4.826;2023-04-19T00:52:28;53.73;51.35;55.62;;
66458;Laerm;56835;52.198;4.826;2023-04-19T00:52:38;53.76;51.24;55.12;;
66458;Laerm;56835;52.198;4.826;2023-04-19T00:52:49;53.71;52.09;55.21;;
66458;Laerm;56835;52.198;4.826;2023-04-19T00:53:01;53.79;51.62;55.33;;
66458;Laerm;56835;52.198;4.826;2023-04-19T00:53:11;53.72;51.88;54.94;;
66458;Laerm;56835;52.198;4.826;2023-04-19T00:53:21;53.74;52.16;55.07;;
66458;Laerm;56835;52.198;4.826;2023-04-19T00:53:32;53.72;51.92;54.99;;
66458;Laerm;56835;52.198;4.826;2023-04-19T00:53:43;53.75;52.18;55.38;;
66458;Laerm;56835;52.198;4.826;2023-04-19T00:53:53;53.74;51.67;54.92;;
66458;Laerm;56835;52.198;4.826;2023-04-19T00:54:03;53.76;52.30;55.16;;
66458;Laerm;56835;52.198;4.826;2023-04-19T00:54:14;53.71;52.24;55.18;;
66458;Laerm;56835;52.198;4.826;2023-04-19T00:54:24;53.76;52.18;55.14;;
66458;Laerm;56835;52.198;4.826;2023-04-19T00:54:34;53.75;52.19;55.46;;
66458;Laerm;56835;52.198;4.826;2023-04-19T00:54:45;53.70;52.11;55.34;;
66458;Laerm;56835;52.198;4.826;2023-04-19T00:54:56;53.78;52.42;55.35;;
66458;Laerm;56835;52.198;4.826;2023-04-19T00:55:07;53.75;51.84;55.57;;
66458;Laerm;56835;52.198;4.826;2023-04-19T00:55:17;53.84;52.30;55.11;;
66458;Laerm;56835;52.198;4.826;2023-04-19T00:55:28;53.78;51.82;54.95;;
66458;Laerm;56835;52.198;4.826;2023-04-19T00:55:38;53.72;51.81;55.33;;
66458;Laerm;56835;52.198;4.826;2023-04-19T00:55:48;53.75;51.97;55.07;;
66458;Laerm;56835;52.198;4.826;2023-04-19T00:56:02;53.70;52.13;55.17;;
66458;Laerm;56835;52.198;4.826;2023-04-19T00:56:13;53.74;51.85;55.02;;
66458;Laerm;56835;52.198;4.826;2023-04-19T00:56:25;53.78;51.70;55.29;;
66458;Laerm;56835;52.198;4.826;2023-04-19T00:56:35;53.76;51.48;55.21;;
66458;Laerm;56835;52.198;4.826;2023-04-19T00:56:46;53.72;52.06;55.42;;
66458;Laerm;56835;52.198;4.826;2023-04-19T00:56:56;53.77;52.01;55.38;;
66458;Laerm;56835;52.198;4.826;2023-04-19T00:57:07;53.81;51.75;55.38;;
66458;Laerm;56835;52.198;4.826;2023-04-19T00:57:17;53.70;51.97;55.14;;
66458;Laerm;56835;52.198;4.826;2023-04-19T00:57:28;53.71;51.89;55.24;;
66458;Laerm;56835;52.198;4.826;2023-04-19T00:57:38;53.70;51.56;55.00;;
66458;Laerm;56835;52.198;4.826;2023-04-19T00:57:49;53.75;51.64;55.30;;
66458;Laerm;56835;52.198;4.826;2023-04-19T00:58:00;53.73;52.25;55.17;;
66458;Laerm;56835;52.198;4.826;2023-04-19T00:58:11;53.72;52.22;54.98;;
66458;Laerm;56835;52.198;4.826;2023-04-19T00:58:21;53.73;52.20;55.21;;
66458;Laerm;56835;52.198;4.826;2023-04-19T00:58:32;53.73;51.31;55.22;;
66458;Laerm;56835;52.198;4.826;2023-04-19T00:58:42;53.75;51.91;54.97;;
66458;Laerm;56835;52.198;4.826;2023-04-19T00:58:53;53.80;52.35;55.18;;